createdAt,value
2022-08-05T00:02:11.544Z,54.96
2022-08-05T00:04:40.265Z,55.08
2022-08-05T00:07:32.108Z,55.25
2022-08-05T00:09:54.913Z,55.05
2022-08-05T00:12:22.083Z,55.21
2022-08-05T00:14:51.715Z,55.19
2022-08-05T00:17:19.434Z,55.25
2022-08-05T00:20:02.187Z,55.48
2022-08-05T00:22:30.921Z,55.38
2022-08-05T00:24:58.172Z,55.41
2022-08-05T00:27:28.655Z,55.55
2022-08-05T00:30:04.998Z,55.57
2022-08-05T00:32:38.833Z,55.63
2022-08-05T00:35:08.304Z,55.76
2022-08-05T00:37:52.408Z,55.75
2022-08-05T00:40:27.252Z,55.64
2022-08-05T00:42:55.104Z,55.61
2022-08-05T00:45:24.968Z,55.60
2022-08-05T00:48:06.200Z,55.66
2022-08-05T00:50:34.349Z,55.65
2022-08-05T00:53:02.945Z,55.60
2022-08-05T00:55:42.531Z,55.57
2022-08-05T00:58:17.040Z,55.43
2022-08-05T01:00:46.819Z,55.53
2022-08-05T01:03:22.298Z,55.71
2022-08-05T01:05:51.626Z,55.71
2022-08-05T01:08:40.662Z,55.84
2022-08-05T01:11:33.339Z,56.14
2022-08-05T01:14:28.297Z,56.47
2022-08-05T01:17:04.673Z,56.77
2022-08-05T01:20:02.369Z,56.99
2022-08-05T01:22:35.776Z,56.91
2022-08-05T01:25:40.935Z,56.96
2022-08-05T01:28:33.016Z,57.14
2022-08-05T01:31:22.622Z,57.22
2022-08-05T01:33:53.833Z,57.14
2022-08-05T01:36:28.414Z,57.14
2022-08-05T01:38:56.381Z,57.36
2022-08-05T01:41:28.197Z,57.29
2022-08-05T01:43:55.962Z,57.11
2022-08-05T01:46:42.099Z,57.29
2022-08-05T01:49:23.987Z,57.14
2022-08-05T01:51:59.386Z,57.23
2022-08-05T01:54:33.616Z,57.34
2022-08-05T01:58:10.130Z,56.96
2022-08-05T01:59:48.714Z,56.98
2022-08-05T02:02:16.175Z,56.76
2022-08-05T02:04:46.149Z,56.78
2022-08-05T02:07:22.008Z,56.73
2022-08-05T02:09:51.171Z,56.77
2022-08-05T02:12:38.919Z,56.95
2022-08-05T02:15:21.321Z,56.89
2022-08-05T02:18:32.993Z,57.07
2022-08-05T02:20:44.693Z,56.96
2022-08-05T02:23:14.132Z,57.18
2022-08-05T02:25:50.031Z,57.10
2022-08-05T02:28:29.237Z,57.29
2022-08-05T02:31:00.618Z,57.18
2022-08-05T02:33:38.617Z,57.20
2022-08-05T02:36:13.515Z,57.04
2022-08-05T02:38:45.176Z,57.09
2022-08-05T02:41:22.977Z,57.21
2022-08-05T02:44:02.443Z,57.18
2022-08-05T02:46:36.243Z,57.02
2022-08-05T02:49:21.926Z,57.49
2022-08-05T02:52:04.431Z,57.83
2022-08-05T02:54:36.127Z,58.04
2022-08-05T02:57:10.230Z,57.89
2022-08-05T02:59:55.834Z,57.90
2022-08-05T03:02:27.583Z,57.72
2022-08-05T03:04:55.666Z,57.53
2022-08-05T03:07:59.435Z,57.28
2022-08-05T03:10:10.461Z,57.17
2022-08-05T03:12:41.246Z,57.03
2022-08-05T03:15:10.064Z,57.14
2022-08-05T03:17:41.484Z,57.32
2022-08-05T03:20:10.426Z,57.54
2022-08-05T03:22:37.997Z,57.53
2022-08-05T03:26:02.630Z,57.36
2022-08-05T03:28:00.507Z,57.36
2022-08-05T03:30:33.437Z,57.39
2022-08-05T03:33:05.728Z,57.36
2022-08-05T03:35:33.684Z,57.09
2022-08-05T03:38:02.924Z,57.05
2022-08-05T03:40:32.059Z,56.95
2022-08-05T03:43:01.398Z,56.80
2022-08-05T03:45:57.234Z,56.83
2022-08-05T03:48:21.980Z,56.68
2022-08-05T03:52:35.211Z,56.84
2022-08-05T03:55:34.753Z,56.81
2022-08-05T03:56:42.547Z,56.84
2022-08-05T03:59:11.108Z,56.78
2022-08-05T04:01:40.892Z,56.64
2022-08-05T04:04:10.565Z,56.60
2022-08-05T04:06:38.182Z,56.48
2022-08-05T04:09:15.336Z,56.68
2022-08-05T04:11:52.484Z,56.77
2022-08-05T04:14:29.993Z,57.08
2022-08-05T04:17:00.088Z,57.04
2022-08-05T04:19:30.328Z,57.03
2022-08-05T04:22:10.039Z,57.34
2022-08-05T04:24:44.287Z,57.65
2022-08-05T04:27:15.420Z,57.89
2022-08-05T04:29:42.898Z,57.95
2022-08-05T04:32:10.044Z,57.90
2022-08-05T04:34:43.035Z,57.65
2022-08-05T04:37:10.585Z,57.30
2022-08-05T04:39:39.161Z,56.92
2022-08-05T04:42:07.898Z,56.59
2022-08-05T04:44:36.340Z,56.55
2022-08-05T04:47:09.293Z,56.35
2022-08-05T04:50:01.308Z,56.23
2022-08-05T04:52:27.653Z,56.10
2022-08-05T04:54:56.946Z,56.00
2022-08-05T04:57:28.975Z,55.64
2022-08-05T04:59:58.573Z,55.39
2022-08-05T05:02:41.172Z,55.15
2022-08-05T05:05:26.376Z,55.09
2022-08-05T05:08:03.746Z,54.68
2022-08-05T05:10:33.246Z,54.66
2022-08-05T05:13:03.786Z,54.90
2022-08-05T05:15:56.688Z,55.24
2022-08-05T05:18:31.527Z,55.23
2022-08-05T05:21:02.383Z,55.22
2022-08-05T05:23:39.339Z,55.46
2022-08-05T05:26:18.245Z,55.59
2022-08-05T05:28:45.723Z,55.68
2022-08-05T05:31:13.120Z,55.68
2022-08-05T05:33:58.734Z,55.35
2022-08-05T05:36:28.652Z,55.15
2022-08-05T05:38:57.546Z,55.22
2022-08-05T05:41:40.832Z,55.14
2022-08-05T05:44:26.979Z,54.50
2022-08-05T05:46:56.385Z,54.07
2022-08-05T05:49:26.577Z,53.85
2022-08-05T05:51:54.636Z,53.74
2022-08-05T05:54:22.165Z,53.30
2022-08-05T05:57:13.406Z,53.04
2022-08-05T05:59:42.611Z,52.77
2022-08-05T06:02:10.702Z,52.52
2022-08-05T06:04:38.206Z,52.14
2022-08-05T06:07:05.619Z,51.68
2022-08-05T06:09:50.173Z,51.47
2022-08-05T06:12:42.143Z,51.29
2022-08-05T06:15:23.600Z,51.56
2022-08-05T06:17:53.489Z,51.68
2022-08-05T06:20:21.961Z,51.81
2022-08-05T06:22:50.389Z,52.58
2022-08-05T06:25:59.192Z,53.06
2022-08-05T06:28:10.757Z,53.47
2022-08-05T06:30:48.519Z,53.35
2022-08-05T06:33:19.305Z,53.39
2022-08-05T06:36:05.646Z,53.78
2022-08-05T06:38:37.271Z,53.87
2022-08-05T06:41:07.944Z,53.69
2022-08-05T06:43:58.489Z,53.74
2022-08-05T06:46:29.925Z,53.06
2022-08-05T06:49:00.894Z,52.73
2022-08-05T06:51:31.030Z,52.52
2022-08-05T06:53:59.663Z,52.82
2022-08-05T06:56:28.175Z,53.21
2022-08-05T06:58:55.788Z,52.86
2022-08-05T07:01:23.839Z,52.98
2022-08-05T07:03:59.996Z,52.37
2022-08-05T07:06:28.611Z,52.68
2022-08-05T07:08:56.265Z,53.62
2022-08-05T07:11:29.048Z,54.37
2022-08-05T07:14:20.379Z,54.65
2022-08-05T07:17:58.471Z,54.60
2022-08-05T07:22:29.784Z,54.41
2022-08-05T07:24:59.432Z,54.65
2022-08-05T07:27:27.566Z,54.96
2022-08-05T07:30:25.408Z,54.86
2022-08-05T07:32:55.632Z,55.24
2022-08-05T07:36:02.373Z,55.31
2022-08-05T07:38:32.250Z,55.20
2022-08-05T07:41:04.459Z,55.29
2022-08-05T07:43:48.014Z,55.46
2022-08-05T07:46:24.736Z,55.61
2022-08-05T07:49:01.711Z,55.49
2022-08-05T07:51:41.008Z,55.61
2022-08-05T07:54:26.487Z,55.20
2022-08-05T07:57:14.043Z,55.02
2022-08-05T07:59:42.209Z,55.24
2022-08-05T08:02:16.253Z,55.14
2022-08-05T08:04:46.732Z,54.94
2022-08-05T08:07:15.093Z,54.94
2022-08-05T08:09:43.904Z,54.96
2022-08-05T08:12:35.673Z,55.25
2022-08-05T08:15:02.402Z,55.03
2022-08-05T08:17:32.185Z,54.92
2022-08-05T08:20:22.391Z,54.62
2022-08-05T08:22:57.917Z,54.20
2022-08-05T08:25:27.059Z,53.57
2022-08-05T08:28:18.484Z,53.59
2022-08-05T08:31:01.060Z,54.01
2022-08-05T08:33:28.311Z,53.55
2022-08-05T08:36:29.647Z,53.26
2022-08-05T08:38:42.985Z,53.48
2022-08-05T08:41:20.574Z,53.76
2022-08-05T08:45:22.975Z,53.59
2022-08-05T08:46:41.605Z,53.83
2022-08-05T08:50:13.230Z,54.01
2022-08-05T08:52:05.977Z,53.19
2022-08-05T08:54:42.270Z,52.37
2022-08-05T08:57:11.195Z,52.50
2022-08-05T08:59:39.228Z,52.64
2022-08-05T09:02:09.466Z,52.26
2022-08-05T09:04:58.291Z,51.98
2022-08-05T09:07:28.515Z,52.15
2022-08-05T09:09:56.892Z,52.59
2022-08-05T09:12:27.730Z,52.41
2022-08-05T09:14:58.583Z,52.25
2022-08-05T09:17:42.673Z,52.06
2022-08-05T09:20:21.029Z,52.35
2022-08-05T09:23:18.646Z,52.45
2022-08-05T09:26:01.668Z,52.46
2022-08-05T09:28:33.431Z,52.73
2022-08-05T09:31:22.093Z,52.08
2022-08-05T09:34:01.531Z,52.24
2022-08-05T09:36:45.802Z,52.64
2022-08-05T09:39:41.880Z,53.37
2022-08-05T09:42:13.597Z,53.67
2022-08-05T09:44:51.357Z,54.21
2022-08-05T09:47:23.713Z,54.40
2022-08-05T09:50:02.073Z,54.11
2022-08-05T09:52:31.529Z,53.95
2022-08-05T09:55:06.299Z,54.27
2022-08-05T09:57:49.684Z,54.62
2022-08-05T10:00:26.606Z,54.65
2022-08-05T10:02:55.022Z,54.98
2022-08-05T10:05:28.106Z,55.27
2022-08-05T10:08:36.744Z,56.87
2022-08-05T10:10:54.601Z,58.04
2022-08-05T10:13:47.835Z,57.18
2022-08-05T10:16:41.981Z,56.38
2022-08-05T10:19:23.427Z,57.62
2022-08-05T10:21:59.584Z,58.48
2022-08-05T10:24:27.235Z,58.22
2022-08-05T10:27:00.581Z,57.35
2022-08-05T10:30:42.002Z,57.53
2022-08-05T10:32:54.431Z,58.91
2022-08-05T10:35:05.085Z,58.94
2022-08-05T10:37:41.313Z,59.06
2022-08-05T10:40:44.894Z,59.25
2022-08-05T10:43:37.537Z,59.56
2022-08-05T10:46:08.011Z,59.75
2022-08-05T10:48:56.813Z,58.73
2022-08-05T10:51:29.035Z,59.07
2022-08-05T10:54:01.058Z,59.29
2022-08-05T10:56:44.346Z,60.11
2022-08-05T11:00:02.988Z,59.98
2022-08-05T11:02:14.006Z,59.58
2022-08-05T11:04:46.277Z,59.30
2022-08-05T11:07:19.424Z,58.69
2022-08-05T11:10:09.481Z,58.56
2022-08-05T11:12:41.104Z,58.49
2022-08-05T11:15:20.643Z,58.78
2022-08-05T11:17:59.717Z,59.21
2022-08-05T11:20:34.617Z,59.71
2022-08-05T11:23:33.312Z,60.19
2022-08-05T11:26:11.321Z,60.70
2022-08-05T11:28:44.496Z,60.86
2022-08-05T11:31:11.764Z,62.14
2022-08-05T11:33:48.020Z,62.98
2022-08-05T11:36:34.328Z,62.72
2022-08-05T11:39:09.680Z,62.62
2022-08-05T11:42:00.669Z,62.31
2022-08-05T11:44:53.220Z,61.66
2022-08-05T11:47:19.953Z,61.22
2022-08-05T11:49:56.546Z,60.23
2022-08-05T11:52:29.702Z,59.44
2022-08-05T11:55:07.153Z,59.14
2022-08-05T11:58:08.205Z,58.34
2022-08-05T12:00:27.628Z,57.81
2022-08-05T12:02:56.569Z,57.09
2022-08-05T12:05:32.263Z,56.99
2022-08-05T12:08:11.260Z,56.18
2022-08-05T12:10:45.019Z,55.82
2022-08-05T12:14:43.269Z,54.90
2022-08-05T12:18:10.140Z,54.15
2022-08-05T12:20:25.538Z,53.74
2022-08-05T12:22:51.766Z,53.36
2022-08-05T12:25:19.104Z,52.60
2022-08-05T12:27:53.199Z,52.70
2022-08-05T12:30:22.818Z,52.30
2022-08-05T12:33:07.355Z,51.26
2022-08-05T12:35:46.754Z,50.52
2022-08-05T12:38:15.310Z,50.43
2022-08-05T12:40:44.155Z,50.42
2022-08-05T12:43:11.929Z,50.34
2022-08-05T12:45:52.505Z,50.18
2022-08-05T12:48:32.473Z,49.68
2022-08-05T12:52:09.971Z,50.03
2022-08-05T12:54:14.699Z,49.86
2022-08-05T12:56:47.993Z,49.66
2022-08-05T12:59:27.358Z,49.74
2022-08-05T13:02:07.458Z,49.93
2022-08-05T13:04:41.842Z,50.00
2022-08-05T13:07:56.007Z,49.51
2022-08-05T13:10:13.065Z,49.37
2022-08-05T13:12:42.585Z,49.15
2022-08-05T13:15:24.383Z,48.40
2022-08-05T13:18:05.136Z,47.70
2022-08-05T13:20:35.604Z,47.20
2022-08-05T13:23:08.045Z,46.99
2022-08-05T13:25:51.629Z,47.02
2022-08-05T13:28:25.542Z,46.52
2022-08-05T13:30:53.457Z,45.95
2022-08-05T13:34:25.160Z,45.95
2022-08-05T13:36:11.373Z,46.87
2022-08-05T13:38:43.073Z,47.81
2022-08-05T13:41:11.797Z,48.40
2022-08-05T13:43:45.197Z,48.91
2022-08-05T13:46:43.652Z,49.46
2022-08-05T13:49:13.241Z,49.58
2022-08-05T13:51:46.513Z,49.59
2022-08-05T13:54:16.239Z,49.53
2022-08-05T13:56:50.365Z,49.85
2022-08-05T13:59:24.106Z,50.15
2022-08-05T14:01:57.911Z,50.25
2022-08-05T14:04:49.888Z,50.48
2022-08-05T14:07:26.538Z,50.24
2022-08-05T14:10:10.620Z,50.83
2022-08-05T14:12:39.291Z,51.16
2022-08-05T14:16:08.019Z,50.75
2022-08-05T14:17:59.462Z,50.83
2022-08-05T14:20:28.516Z,50.72
2022-08-05T14:22:56.074Z,50.94
2022-08-05T14:25:28.160Z,51.03
2022-08-05T14:27:56.418Z,51.07
2022-08-05T14:30:28.081Z,51.06
2022-08-05T14:32:56.746Z,51.34
2022-08-05T14:35:36.325Z,51.29
2022-08-05T14:38:04.957Z,51.27
2022-08-05T14:40:32.487Z,50.84
2022-08-05T14:43:01.546Z,50.84
2022-08-05T14:45:28.867Z,51.47
2022-08-05T14:48:05.379Z,51.61
2022-08-05T14:50:39.712Z,51.12
2022-08-05T14:53:07.890Z,50.50
2022-08-05T14:55:39.556Z,50.77
2022-08-05T14:58:11.296Z,50.58
2022-08-05T15:00:59.432Z,50.48
2022-08-05T15:03:33.117Z,50.76
2022-08-05T15:06:13.115Z,50.32
2022-08-05T15:08:57.983Z,50.41
2022-08-05T15:11:50.994Z,50.85
2022-08-05T15:14:34.222Z,51.61
2022-08-05T15:17:45.580Z,51.25
2022-08-05T15:20:17.082Z,50.92
2022-08-05T15:22:54.073Z,51.06
2022-08-05T15:25:51.078Z,51.30
2022-08-05T15:28:14.395Z,51.31
2022-08-05T15:30:43.790Z,51.40
2022-08-05T15:33:56.874Z,51.84
2022-08-05T15:36:06.007Z,52.26
2022-08-05T15:38:44.845Z,51.87
2022-08-05T15:41:21.949Z,51.79
2022-08-05T15:43:54.508Z,51.95
2022-08-05T15:46:25.028Z,52.05
2022-08-05T15:49:00.643Z,52.42
2022-08-05T15:52:03.746Z,52.97
2022-08-05T15:54:18.166Z,53.30
2022-08-05T15:56:45.465Z,53.58
2022-08-05T15:59:19.897Z,53.64
2022-08-05T16:01:52.508Z,53.64
2022-08-05T16:04:25.463Z,53.88
2022-08-05T16:06:55.762Z,53.89
2022-08-05T16:09:24.374Z,54.14
2022-08-05T16:11:54.039Z,53.91
2022-08-05T16:14:22.661Z,52.82
2022-08-05T16:16:50.183Z,53.52
2022-08-05T16:19:19.185Z,53.63
2022-08-05T16:22:05.502Z,53.31
2022-08-05T16:24:39.536Z,52.45
2022-08-05T16:27:09.246Z,52.90
2022-08-05T16:29:37.619Z,53.32
2022-08-05T16:32:09.687Z,53.77
2022-08-05T16:34:39.254Z,54.36
2022-08-05T16:38:00.433Z,54.59
2022-08-05T16:40:06.424Z,54.70
2022-08-05T16:42:36.020Z,54.88
2022-08-05T16:46:04.034Z,55.24
2022-08-05T16:47:58.492Z,55.48
2022-08-05T16:50:29.898Z,55.66
2022-08-05T16:53:01.667Z,55.73
2022-08-05T16:55:46.788Z,55.75
2022-08-05T16:58:14.795Z,55.32
2022-08-05T17:00:48.095Z,55.42
2022-08-05T17:03:20.063Z,55.69
2022-08-05T17:05:54.034Z,55.95
2022-08-05T17:08:33.364Z,55.72
2022-08-05T17:11:04.234Z,56.02
2022-08-05T17:13:37.884Z,56.32
2022-08-05T17:16:30.258Z,56.06
2022-08-05T17:18:56.596Z,56.17
2022-08-05T17:21:24.089Z,56.13
2022-08-05T17:24:04.899Z,56.28
2022-08-05T17:26:36.938Z,56.70
2022-08-05T17:29:09.783Z,56.60
2022-08-05T17:31:41.410Z,56.51
2022-08-05T17:34:30.017Z,56.36
2022-08-05T17:37:00.610Z,56.22
2022-08-05T17:39:33.593Z,56.04
2022-08-05T17:42:28.495Z,56.03
2022-08-05T17:44:51.101Z,56.01
2022-08-05T17:47:22.170Z,56.28
2022-08-05T17:49:52.007Z,56.59
2022-08-05T17:52:32.800Z,56.91
2022-08-05T17:55:00.731Z,56.81
2022-08-05T17:57:30.538Z,56.87
2022-08-05T18:00:03.458Z,56.49
2022-08-05T18:02:34.213Z,56.08
2022-08-05T18:05:06.924Z,55.75
2022-08-05T18:07:41.414Z,55.74
2022-08-05T18:10:13.989Z,55.68
2022-08-05T18:12:48.622Z,55.62
2022-08-05T18:15:16.440Z,55.69
2022-08-05T18:18:00.393Z,55.79
2022-08-05T18:20:32.627Z,55.94
2022-08-05T18:23:12.014Z,56.13
2022-08-05T18:25:45.262Z,56.17
2022-08-05T18:28:17.770Z,56.41
2022-08-05T18:30:51.031Z,56.41
2022-08-05T18:33:22.658Z,56.87
2022-08-05T18:36:03.556Z,56.74
2022-08-05T18:38:36.395Z,57.09
2022-08-05T18:41:54.290Z,57.32
2022-08-05T18:43:52.082Z,57.66
2022-08-05T18:46:19.812Z,58.01
2022-08-05T18:48:53.845Z,58.04
2022-08-05T18:52:06.597Z,58.27
2022-08-05T18:54:30.962Z,58.53
2022-08-05T18:57:00.929Z,58.64
2022-08-05T18:59:43.995Z,58.74
2022-08-05T19:02:26.728Z,58.80
2022-08-05T19:05:02.073Z,59.04
2022-08-05T19:07:45.388Z,59.16
2022-08-05T19:10:15.271Z,58.83
2022-08-05T19:12:43.258Z,58.83
2022-08-05T19:15:57.648Z,58.97
2022-08-05T19:18:09.739Z,59.36
2022-08-05T19:20:41.764Z,59.41
2022-08-05T19:24:05.771Z,59.20
2022-08-05T19:26:02.937Z,59.36
2022-08-05T19:28:34.852Z,59.04
2022-08-05T19:31:06.079Z,58.84
2022-08-05T19:33:36.815Z,58.98
2022-08-05T19:36:09.020Z,59.13
2022-08-05T19:38:36.746Z,59.19
2022-08-05T19:41:07.303Z,58.91
2022-08-05T19:44:05.862Z,58.82
2022-08-05T19:46:29.567Z,58.81
2022-08-05T19:49:01.227Z,58.61
2022-08-05T19:52:04.525Z,58.30
2022-08-05T19:54:26.777Z,57.95
2022-08-05T19:56:59.761Z,57.92
2022-08-05T20:00:00.511Z,57.79
2022-08-05T20:02:17.696Z,57.77
2022-08-05T20:04:48.234Z,57.64
2022-08-05T20:07:15.906Z,57.75
2022-08-05T20:10:11.642Z,57.77
2022-08-05T20:12:48.357Z,57.66
2022-08-05T20:15:48.735Z,57.82
2022-08-05T20:18:10.873Z,57.71
2022-08-05T20:20:55.818Z,57.42
2022-08-05T20:23:44.481Z,57.01
2022-08-05T20:26:16.462Z,56.87
2022-08-05T20:28:49.886Z,56.64
2022-08-05T20:31:21.534Z,56.63
2022-08-05T20:33:51.338Z,56.48
2022-08-05T20:36:18.971Z,56.36
2022-08-05T20:38:53.686Z,56.20
2022-08-05T20:41:27.436Z,56.25
2022-08-05T20:44:17.184Z,56.43
2022-08-05T20:46:48.086Z,56.24
2022-08-05T20:49:15.337Z,56.41
2022-08-05T20:51:53.441Z,56.31
2022-08-05T20:54:22.326Z,56.15
2022-08-05T20:56:49.757Z,56.15
2022-08-05T20:59:26.645Z,56.20
2022-08-05T21:01:56.549Z,56.35
2022-08-05T21:04:27.008Z,56.40
2022-08-05T21:06:55.797Z,56.25
2022-08-05T21:09:23.175Z,56.37
2022-08-05T21:12:09.788Z,56.29
2022-08-05T21:14:39.205Z,56.41
2022-08-05T21:17:06.762Z,56.24
2022-08-05T21:19:47.042Z,56.02
2022-08-05T21:22:21.746Z,56.06
2022-08-05T21:24:51.590Z,55.97
2022-08-05T21:27:25.347Z,55.99
2022-08-05T21:29:56.242Z,55.90
2022-08-05T21:32:27.765Z,56.17
2022-08-05T21:35:17.525Z,56.40
2022-08-05T21:37:52.781Z,56.49
2022-08-05T21:40:23.114Z,56.57
2022-08-05T21:42:51.980Z,56.50
2022-08-05T21:45:26.574Z,56.55
2022-08-05T21:48:08.502Z,56.41
2022-08-05T21:50:37.268Z,56.35
2022-08-05T21:53:16.347Z,56.25
2022-08-05T21:56:05.667Z,56.12
2022-08-05T21:58:32.854Z,56.17
2022-08-05T22:01:00.167Z,56.07
2022-08-05T22:03:48.727Z,56.10
2022-08-05T22:06:22.582Z,56.13
2022-08-05T22:08:52.415Z,56.27
2022-08-05T22:11:34.389Z,56.25
2022-08-05T22:14:06.460Z,56.21
2022-08-05T22:16:53.162Z,56.36
2022-08-05T22:20:01.749Z,56.36
2022-08-05T22:22:12.444Z,56.38
2022-08-05T22:25:01.485Z,56.64
2022-08-05T22:28:11.025Z,56.62
2022-08-05T22:30:32.195Z,56.39
2022-08-05T22:33:02.553Z,56.10
2022-08-05T22:35:48.161Z,56.15
2022-08-05T22:38:19.677Z,55.80
2022-08-05T22:40:50.087Z,55.71
2022-08-05T22:43:36.944Z,55.58
2022-08-05T22:46:13.390Z,55.59
2022-08-05T22:48:42.219Z,55.41
2022-08-05T22:51:16.004Z,55.53
2022-08-05T22:53:51.830Z,55.24
2022-08-05T22:56:30.463Z,55.21
2022-08-05T22:59:02.952Z,55.06
2022-08-05T23:01:50.778Z,54.97
2022-08-05T23:04:19.308Z,55.08
2022-08-05T23:06:47.758Z,54.74
2022-08-05T23:09:27.980Z,54.69
2022-08-05T23:12:02.600Z,54.76
2022-08-05T23:14:32.110Z,54.63
2022-08-05T23:17:24.221Z,54.63
2022-08-05T23:20:00.681Z,54.63
2022-08-05T23:22:30.958Z,54.65
2022-08-05T23:24:59.163Z,54.82
2022-08-05T23:27:28.882Z,54.58
2022-08-05T23:30:01.024Z,54.68
2022-08-05T23:32:28.819Z,54.75
2022-08-05T23:34:56.757Z,54.63
2022-08-05T23:37:23.945Z,54.77
2022-08-05T23:39:54.920Z,55.04
2022-08-05T23:42:23.399Z,54.90
2022-08-05T23:44:57.296Z,54.77
2022-08-05T23:47:25.210Z,54.62
2022-08-05T23:49:55.648Z,54.65
2022-08-05T23:52:27.828Z,54.89
2022-08-05T23:54:57.150Z,55.15
2022-08-05T23:57:28.341Z,55.38
